Metar z połowy godziny Komunikat METAR ze strony awiacja.imgw.pl Metar G30 EPPR METAR EPPR 240430Z 22004KT CAVOK 07/04 Q1012 RMK 073 079 4/4=